Time;durP1;ratioP1;P1;durP2;ratioP2;P2;SDS_P1;SDS_P2;PMS_P1;PMS_P2;Temp;Humidity;BMP_temperature;BMP_pressure;BME280_temperature;BME280_humidity;BME280_pressure;Samples;Min_cycle;Max_cycle;Signal;HPM_P1;HPM_P2
2023/01/08 00:02:13;;;;;;;;;;;26.90;86.90;;;;;;5067292;28;19920;-71
2023/01/08 00:04:39;;;;;;;;;;;26.60;87.90;;;;;;5069718;28;19925;-77
2023/01/08 00:07:06;;;;;;;;;;;26.40;89.00;;;;;;5075331;28;19917;-72
2023/01/08 00:09:33;;;;;;;;;;;26.10;88.10;;;;;;5072027;28;19934;-71
2023/01/08 00:11:59;;;;;;;;;;;26.30;87.00;;;;;;5066048;28;19924;-76
2023/01/08 00:14:26;;;;;;;;;;;27.10;88.20;;;;;;5056041;27;20367;-75
2023/01/08 00:16:53;;;;;;;;;;;27.80;83.30;;;;;;5064060;28;20371;-73
2023/01/08 00:19:19;;;;;;;;;;;28.20;86.40;;;;;;5057558;28;19920;-72
2023/01/08 00:21:46;;;;;;;;;;;28.70;86.70;;;;;;5059989;28;19908;-77
2023/01/08 00:24:13;;;;;;;;;;;29.10;81.90;;;;;;5063908;28;20056;-71
2023/01/08 00:26:39;;;;;;;;;;;28.80;84.60;;;;;;5054557;28;19954;-70
2023/01/08 00:29:06;;;;;;;;;;;28.30;82.90;;;;;;5060503;28;19912;-72
2023/01/08 00:31:33;;;;;;;;;;;27.70;83.30;;;;;;5074356;28;20341;-71
2023/01/08 00:33:59;;;;;;;;;;;27.20;84.40;;;;;;5071500;28;19955;-73
2023/01/08 00:36:26;;;;;;;;;;;26.80;85.00;;;;;;5067315;28;19968;-73
2023/01/08 00:38:52;;;;;;;;;;;26.50;85.10;;;;;;5059307;28;20323;-72
2023/01/08 00:41:19;;;;;;;;;;;26.50;86.30;;;;;;5057775;28;19917;-72
2023/01/08 00:43:46;;;;;;;;;;;27.10;86.30;;;;;;5069857;28;19916;-73
2023/01/08 00:46:12;;;;;;;;;;;27.70;83.50;;;;;;5065036;28;19921;-70
2023/01/08 00:48:39;;;;;;;;;;;27.80;81.20;;;;;;5063613;28;20011;-77
2023/01/08 00:51:06;;;;;;;;;;;28.00;82.70;;;;;;5053279;28;19939;-76
2023/01/08 00:53:33;;;;;;;;;;;28.40;83.90;;;;;;5067617;28;19923;-72
2023/01/08 00:56:01;;;;;;;;;;;29.00;83.90;;;;;;5072252;28;19920;-73
2023/01/08 00:58:28;;;;;;;;;;;29.30;82.20;;;;;;5070704;28;19978;-72
2023/01/08 01:00:55;;;;;;;;;;;29.70;79.30;;;;;;5059292;28;19924;-70
2023/01/08 01:03:21;;;;;;;;;;;29.50;79.60;;;;;;5062809;28;19923;-70
2023/01/08 01:05:48;;;;;;;;;;;29.30;82.50;;;;;;5070157;28;19946;-69
2023/01/08 01:08:15;;;;;;;;;;;29.10;80.50;;;;;;5091023;28;19916;-69
2023/01/08 01:10:42;;;;;;;;;;;29.00;81.60;;;;;;5073103;28;19908;-70
2023/01/08 01:13:08;;;;;;;;;;;29.30;81.50;;;;;;5062953;28;19923;-71
2023/01/08 01:15:35;;;;;;;;;;;29.60;77.20;;;;;;5062789;28;19920;-70
2023/01/08 01:18:02;;;;;;;;;;;29.60;77.80;;;;;;5067093;28;19912;-77
2023/01/08 01:20:29;;;;;;;;;;;29.60;79.60;;;;;;5069008;28;20286;-71
2023/01/08 01:22:55;;;;;;;;;;;30.00;79.60;;;;;;5067965;28;19970;-77
2023/01/08 01:25:22;;;;;;;;;;;30.40;82.60;;;;;;5054077;28;19917;-75
2023/01/08 01:27:49;;;;;;;;;;;30.90;80.50;;;;;;5056755;28;19917;-76
2023/01/08 01:30:15;;;;;;;;;;;30.80;79.10;;;;;;5072259;28;19916;-74
2023/01/08 01:32:42;;;;;;;;;;;30.20;79.40;;;;;;5070344;28;20007;-76
2023/01/08 01:35:09;;;;;;;;;;;29.80;79.80;;;;;;5067455;28;20003;-75
2023/01/08 01:37:38;;;;;;;;;;;29.90;80.60;;;;;;5063458;28;19920;-73
2023/01/08 01:40:05;;;;;;;;;;;30.20;79.50;;;;;;5053084;28;19963;-76
2023/01/08 01:42:42;;;;;;;;;;;30.60;80.30;;;;;;5072565;28;20351;-72
2023/01/08 01:45:16;;;;;;;;;;;31.00;79.60;;;;;;5066065;28;19985;-75
2023/01/08 01:47:44;;;;;;;;;;;31.30;80.40;;;;;;5070057;28;19923;-75
2023/01/08 01:50:27;;;;;;;;;;;31.50;78.20;;;;;;5055337;28;19955;-76
2023/01/08 01:52:59;;;;;;;;;;;31.60;76.90;;;;;;5063599;28;20282;-75
2023/01/08 01:55:27;;;;;;;;;;;31.50;75.80;;;;;;5061061;28;19912;-76
2023/01/08 01:58:10;;;;;;;;;;;31.40;75.60;;;;;;5061893;28;19920;-72
2023/01/08 02:00:37;;;;;;;;;;;31.10;75.60;;;;;;5066039;28;19920;-75
2023/01/08 02:03:05;;;;;;;;;;;31.30;80.90;;;;;;5059408;28;19916;-74
2023/01/08 02:05:42;;;;;;;;;;;31.10;77.10;;;;;;5064009;28;19921;-73
2023/01/08 02:08:16;;;;;;;;;;;30.60;77.10;;;;;;5101471;28;20339;-75
2023/01/08 02:10:51;;;;;;;;;;;30.40;77.80;;;;;;5054979;28;19917;-74
2023/01/08 02:13:22;;;;;;;;;;;29.90;78.20;;;;;;5061475;28;19913;-71
2023/01/08 02:15:56;;;;;;;;;;;29.20;77.80;;;;;;5057203;28;20387;-73
2023/01/08 02:18:31;;;;;;;;;;;28.90;79.90;;;;;;5067047;28;19928;-77
2023/01/08 02:21:02;;;;;;;;;;;29.40;79.70;;;;;;5070948;28;19912;-74
2023/01/08 02:23:47;;;;;;;;;;;30.00;80.40;;;;;;5069610;28;19927;-79
2023/01/08 02:26:27;;;;;;;;;;;30.60;79.10;;;;;;5070380;28;20034;-75
2023/01/08 02:28:57;;;;;;;;;;;31.20;76.20;;;;;;5064559;28;20277;-76
2023/01/08 02:31:25;;;;;;;;;;;31.00;76.10;;;;;;5063461;28;19917;-78
2023/01/08 02:33:51;;;;;;;;;;;31.10;78.80;;;;;;5071158;28;19913;-76
2023/01/08 02:36:36;;;;;;;;;;;31.30;79.10;;;;;;5078158;28;20003;-76
2023/01/08 02:39:21;;;;;;;;;;;31.70;80.00;;;;;;5069084;28;19931;-76
2023/01/08 02:42:09;;;;;;;;;;;32.00;78.10;;;;;;5065979;28;20066;-79
2023/01/08 02:44:54;;;;;;;;;;;32.20;77.50;;;;;;5066704;28;19925;-76
2023/01/08 02:47:29;;;;;;;;;;;32.10;77.50;;;;;;5069889;28;19973;-76
2023/01/08 02:50:16;;;;;;;;;;;31.70;76.90;;;;;;5069685;28;20501;-76
2023/01/08 02:53:01;;;;;;;;;;;31.70;78.00;;;;;;5068524;28;19920;-77
2023/01/08 02:55:29;;;;;;;;;;;31.70;75.70;;;;;;5067645;28;19913;-74
2023/01/08 02:57:57;;;;;;;;;;;31.90;77.00;;;;;;5063727;28;20015;-77
2023/01/08 03:00:24;;;;;;;;;;;32.10;76.30;;;;;;5063293;28;19913;-77
2023/01/08 03:02:52;;;;;;;;;;;32.40;77.00;;;;;;5061381;28;20031;-75
2023/01/08 03:05:23;;;;;;;;;;;32.40;76.00;;;;;;5063278;28;20390;-77
2023/01/08 03:07:50;;;;;;;;;;;32.40;75.10;;;;;;5057668;28;19942;-75
2023/01/08 03:10:18;;;;;;;;;;;32.20;73.30;;;;;;5063518;28;19985;-76
2023/01/08 03:12:57;;;;;;;;;;;32.20;73.70;;;;;;5069029;28;19913;-76
2023/01/08 03:15:26;;;;;;;;;;;32.00;72.60;;;;;;5070248;28;19974;-75
2023/01/08 03:17:55;;;;;;;;;;;31.60;73.30;;;;;;5065752;28;20385;-76
2023/01/08 03:20:22;;;;;;;;;;;31.30;74.90;;;;;;5060248;28;19917;-77
2023/01/08 03:22:51;;;;;;;;;;;31.50;75.10;;;;;;5066474;28;19924;-77
2023/01/08 03:25:19;;;;;;;;;;;31.80;75.50;;;;;;5059028;28;19925;-75
2023/01/08 03:27:52;;;;;;;;;;;32.10;75.30;;;;;;5067324;28;19920;-73
2023/01/08 03:30:19;;;;;;;;;;;32.30;73.60;;;;;;5060493;28;19916;-76
2023/01/08 03:32:47;;;;;;;;;;;32.30;73.80;;;;;;5065540;28;19951;-71
2023/01/08 03:35:16;;;;;;;;;;;32.40;74.40;;;;;;5069287;28;20405;-75
2023/01/08 03:37:45;;;;;;;;;;;32.50;73.60;;;;;;5054791;28;20372;-77
2023/01/08 03:40:22;;;;;;;;;;;32.40;70.90;;;;;;5070723;28;19996;-76
2023/01/08 03:42:49;;;;;;;;;;;31.80;71.60;;;;;;5067163;28;19969;-73
2023/01/08 03:45:16;;;;;;;;;;;31.80;75.80;;;;;;5069079;28;19924;-75
2023/01/08 03:47:43;;;;;;;;;;;31.80;74.10;;;;;;5068272;28;20338;-74
2023/01/08 03:50:13;;;;;;;;;;;31.70;71.30;;;;;;5050662;28;19936;-76
2023/01/08 03:52:40;;;;;;;;;;;31.20;73.50;;;;;;5065297;28;20279;-72
2023/01/08 03:55:06;;;;;;;;;;;31.30;73.20;;;;;;5083101;28;19960;-76
2023/01/08 03:57:33;;;;;;;;;;;31.60;73.80;;;;;;5063564;28;20328;-73
2023/01/08 04:00:00;;;;;;;;;;;31.80;74.40;;;;;;5066577;28;20003;-77
2023/01/08 04:02:26;;;;;;;;;;;32.20;73.40;;;;;;5069346;28;19923;-75
2023/01/08 04:04:53;;;;;;;;;;;32.40;73.70;;;;;;5069585;28;19985;-77
2023/01/08 04:07:20;;;;;;;;;;;32.60;72.70;;;;;;5069685;28;19920;-75
2023/01/08 04:09:46;;;;;;;;;;;32.70;72.10;;;;;;5063069;28;19912;-76
2023/01/08 04:12:13;;;;;;;;;;;32.30;68.30;;;;;;5063709;28;19923;-76
2023/01/08 04:14:40;;;;;;;;;;;32.30;71.70;;;;;;5056997;28;20385;-75
2023/01/08 04:17:09;;;;;;;;;;;32.40;72.50;;;;;;5068278;28;19916;-78
2023/01/08 04:19:36;;;;;;;;;;;32.60;71.60;;;;;;5067334;28;19921;-77
2023/01/08 04:22:03;;;;;;;;;;;32.40;73.20;;;;;;5060885;28;19928;-73
2023/01/08 04:24:29;;;;;;;;;;;32.60;73.80;;;;;;5066666;28;19927;-75
2023/01/08 04:26:56;;;;;;;;;;;32.60;73.20;;;;;;5058964;28;19943;-71
2023/01/08 04:29:23;;;;;;;;;;;32.80;73.40;;;;;;5059022;28;19917;-76
2023/01/08 04:31:49;;;;;;;;;;;32.90;73.80;;;;;;5060802;28;20342;-76
2023/01/08 04:34:16;;;;;;;;;;;33.00;72.40;;;;;;5068624;28;19924;-75
2023/01/08 04:36:43;;;;;;;;;;;33.00;73.40;;;;;;5067235;28;19916;-76
2023/01/08 04:39:10;;;;;;;;;;;32.80;75.40;;;;;;5060001;28;19931;-75
2023/01/08 04:41:37;;;;;;;;;;;32.60;74.80;;;;;;5066169;28;19916;-76
2023/01/08 04:44:04;;;;;;;;;;;32.20;77.30;;;;;;5067809;28;19931;-71
2023/01/08 04:46:30;;;;;;;;;;;31.90;77.70;;;;;;5068529;28;19912;-72
2023/01/08 04:48:57;;;;;;;;;;;31.70;78.20;;;;;;5069816;28;20027;-76
2023/01/08 04:51:25;;;;;;;;;;;31.30;77.90;;;;;;5070957;28;19955;-74
2023/01/08 04:53:51;;;;;;;;;;;30.90;79.80;;;;;;5081524;28;19943;-76
2023/01/08 04:56:18;;;;;;;;;;;30.60;80.70;;;;;;5074517;28;20012;-76
2023/01/08 04:58:45;;;;;;;;;;;30.40;80.50;;;;;;5063534;28;20680;-75
2023/01/08 05:01:19;;;;;;;;;;;30.10;80.50;;;;;;5059310;28;19917;-76
2023/01/08 05:03:46;;;;;;;;;;;29.90;80.70;;;;;;5067016;28;19946;-75
2023/01/08 05:06:12;;;;;;;;;;;29.60;81.60;;;;;;5066641;28;19917;-73
2023/01/08 05:08:39;;;;;;;;;;;29.40;81.50;;;;;;5064406;28;20386;-76
2023/01/08 05:11:06;;;;;;;;;;;29.20;82.50;;;;;;5070009;28;19922;-75
2023/01/08 05:13:32;;;;;;;;;;;29.30;82.30;;;;;;5071160;28;19999;-76
2023/01/08 05:15:59;;;;;;;;;;;29.20;82.80;;;;;;5074537;28;19916;-77
2023/01/08 05:18:26;;;;;;;;;;;29.10;82.00;;;;;;5065805;28;19912;-77
2023/01/08 05:20:53;;;;;;;;;;;29.00;82.10;;;;;;5068238;28;19970;-75
2023/01/08 05:23:20;;;;;;;;;;;29.10;82.20;;;;;;5071086;28;19968;-76
2023/01/08 05:25:47;;;;;;;;;;;29.10;82.70;;;;;;5073368;28;19916;-75
2023/01/08 05:28:13;;;;;;;;;;;29.00;81.90;;;;;;5054808;28;20007;-77
2023/01/08 05:30:40;;;;;;;;;;;28.90;81.80;;;;;;5063193;28;20019;-75
2023/01/08 05:33:06;;;;;;;;;;;28.80;82.80;;;;;;5069153;28;19913;-76
2023/01/08 05:35:33;;;;;;;;;;;28.80;82.90;;;;;;5071451;28;20015;-77
2023/01/08 05:38:00;;;;;;;;;;;28.60;82.40;;;;;;5066954;28;19960;-73
2023/01/08 05:40:28;;;;;;;;;;;28.40;82.60;;;;;;5054226;28;20398;-75
2023/01/08 05:42:54;;;;;;;;;;;28.30;83.20;;;;;;5059440;28;19923;-76
2023/01/08 05:45:21;;;;;;;;;;;28.00;83.30;;;;;;5071450;28;19931;-76
2023/01/08 05:47:48;;;;;;;;;;;27.90;83.90;;;;;;5069091;28;20425;-75
2023/01/08 05:50:15;;;;;;;;;;;28.00;84.50;;;;;;5067544;28;20386;-75
2023/01/08 05:52:41;;;;;;;;;;;28.00;84.60;;;;;;5067820;28;19916;-72
2023/01/08 05:55:08;;;;;;;;;;;28.00;83.90;;;;;;5069424;28;19908;-74
2023/01/08 05:57:35;;;;;;;;;;;28.00;84.10;;;;;;5062167;28;19912;-72
2023/01/08 06:00:03;;;;;;;;;;;28.10;84.50;;;;;;5060815;28;20427;-71
2023/01/08 06:02:29;;;;;;;;;;;28.20;84.00;;;;;;5069110;28;20224;-71
2023/01/08 06:04:56;;;;;;;;;;;27.90;83.80;;;;;;5066532;28;20390;-74
2023/01/08 06:07:23;;;;;;;;;;;27.80;84.50;;;;;;5066072;28;20007;-72
2023/01/08 06:09:50;;;;;;;;;;;27.70;83.60;;;;;;5058246;28;19920;-73
2023/01/08 06:12:17;;;;;;;;;;;27.70;84.60;;;;;;5069398;28;19917;-73
2023/01/08 06:14:44;;;;;;;;;;;27.60;84.10;;;;;;5057945;28;19944;-73
2023/01/08 06:17:10;;;;;;;;;;;27.60;83.70;;;;;;5059872;28;20290;-73
2023/01/08 06:19:40;;;;;;;;;;;27.50;84.40;;;;;;5069112;28;19917;-73
2023/01/08 06:22:06;;;;;;;;;;;27.40;85.20;;;;;;5070285;28;20351;-73
2023/01/08 06:24:33;;;;;;;;;;;27.30;85.00;;;;;;5067752;28;20453;-72
2023/01/08 06:27:00;;;;;;;;;;;27.20;85.40;;;;;;5067958;28;19966;-71
2023/01/08 06:29:27;;;;;;;;;;;27.20;85.10;;;;;;5067329;28;19917;-72
2023/01/08 06:31:53;;;;;;;;;;;27.20;84.90;;;;;;5071515;28;19966;-73
2023/01/08 06:34:20;;;;;;;;;;;27.20;84.80;;;;;;5070400;28;20378;-75
2023/01/08 06:36:47;;;;;;;;;;;27.10;85.90;;;;;;5067952;28;19923;-73
2023/01/08 06:39:13;;;;;;;;;;;27.10;86.20;;;;;;5069791;28;20003;-72
2023/01/08 06:41:40;;;;;;;;;;;27.10;86.30;;;;;;5070131;28;20362;-71
2023/01/08 06:44:07;;;;;;;;;;;26.90;86.60;;;;;;5068008;28;19920;-74
2023/01/08 06:46:38;;;;;;;;;;;26.70;87.00;;;;;;5063686;28;19916;-72
2023/01/08 06:49:06;;;;;;;;;;;26.70;87.40;;;;;;5063632;28;19928;-72
2023/01/08 06:51:33;;;;;;;;;;;26.70;87.90;;;;;;5070384;28;19916;-73
2023/01/08 06:53:59;;;;;;;;;;;26.70;88.00;;;;;;5080159;28;19923;-72
2023/01/08 06:56:26;;;;;;;;;;;26.70;87.80;;;;;;5074427;28;19912;-73
2023/01/08 06:58:53;;;;;;;;;;;26.50;88.00;;;;;;5066065;28;19920;-72
2023/01/08 07:01:21;;;;;;;;;;;26.40;88.60;;;;;;5066392;28;19917;-72
2023/01/08 07:03:48;;;;;;;;;;;26.40;88.40;;;;;;5068091;28;19916;-72
2023/01/08 07:06:15;;;;;;;;;;;26.40;89.20;;;;;;5069891;28;20401;-72
2023/01/08 07:08:43;;;;;;;;;;;26.40;88.70;;;;;;5067436;28;19958;-73
2023/01/08 07:11:09;;;;;;;;;;;26.30;88.50;;;;;;5065535;28;19917;-72
2023/01/08 07:13:36;;;;;;;;;;;26.30;89.10;;;;;;5067616;28;20015;-73
2023/01/08 07:16:07;;;;;;;;;;;26.20;89.20;;;;;;5070638;28;20223;-73
2023/01/08 07:18:34;;;;;;;;;;;26.10;89.40;;;;;;5067106;28;19965;-71
2023/01/08 07:21:02;;;;;;;;;;;26.00;89.70;;;;;;5070802;28;20405;-72
2023/01/08 07:23:29;;;;;;;;;;;25.90;90.00;;;;;;5065010;28;19967;-72
2023/01/08 07:25:58;;;;;;;;;;;25.90;89.80;;;;;;5068159;28;20067;-73
2023/01/08 07:28:25;;;;;;;;;;;25.70;90.10;;;;;;5067801;28;19955;-73
2023/01/08 07:30:52;;;;;;;;;;;25.70;90.20;;;;;;5064765;28;19923;-73
2023/01/08 07:33:18;;;;;;;;;;;25.50;90.20;;;;;;5066371;28;20280;-73
2023/01/08 07:35:55;;;;;;;;;;;25.40;90.50;;;;;;5062015;28;19917;-72
2023/01/08 07:38:22;;;;;;;;;;;25.30;90.50;;;;;;5065091;28;19931;-72
2023/01/08 07:40:49;;;;;;;;;;;25.20;90.60;;;;;;5066067;28;19916;-71
2023/01/08 07:43:15;;;;;;;;;;;25.20;90.80;;;;;;5068288;28;19912;-72
2023/01/08 07:45:42;;;;;;;;;;;25.10;90.80;;;;;;5056283;28;20011;-72
2023/01/08 07:48:14;;;;;;;;;;;25.20;91.00;;;;;;5055670;28;19966;-71
2023/01/08 07:50:41;;;;;;;;;;;25.20;90.80;;;;;;5067071;28;19917;-71
2023/01/08 07:53:08;;;;;;;;;;;25.00;91.00;;;;;;5061013;28;19916;-72
2023/01/08 07:55:35;;;;;;;;;;;24.80;91.30;;;;;;5068927;28;19999;-72
2023/01/08 07:58:06;;;;;;;;;;;24.80;91.50;;;;;;5056640;28;19961;-72
2023/01/08 08:00:32;;;;;;;;;;;24.70;91.50;;;;;;5063444;28;19942;-73
2023/01/08 08:03:06;;;;;;;;;;;24.70;91.60;;;;;;5062446;28;20458;-72
2023/01/08 08:05:33;;;;;;;;;;;24.60;91.70;;;;;;5058110;28;19947;-72
2023/01/08 08:07:59;;;;;;;;;;;24.60;91.70;;;;;;5060276;28;19913;-71
2023/01/08 08:10:26;;;;;;;;;;;24.50;91.80;;;;;;5056724;28;19919;-72
2023/01/08 08:12:53;;;;;;;;;;;24.40;92.10;;;;;;5063232;28;19955;-72
2023/01/08 08:15:19;;;;;;;;;;;24.40;92.10;;;;;;5064215;28;21059;-72
2023/01/08 08:17:47;;;;;;;;;;;24.30;92.10;;;;;;5064276;28;19945;-72
2023/01/08 08:20:14;;;;;;;;;;;24.20;92.20;;;;;;5067201;28;19916;-72
2023/01/08 08:22:40;;;;;;;;;;;24.10;92.30;;;;;;5066259;28;19912;-71
2023/01/08 08:25:07;;;;;;;;;;;24.00;92.40;;;;;;5068501;28;19967;-71
2023/01/08 08:27:34;;;;;;;;;;;24.00;92.60;;;;;;5072590;28;19917;-72
2023/01/08 08:30:01;;;;;;;;;;;23.80;92.70;;;;;;5063426;28;19938;-73
2023/01/08 08:32:27;;;;;;;;;;;23.80;92.80;;;;;;5072329;28;19920;-72
2023/01/08 08:34:54;;;;;;;;;;;23.70;93.00;;;;;;5073502;28;19912;-74
2023/01/08 08:37:20;;;;;;;;;;;23.60;93.10;;;;;;5073784;28;19920;-72
2023/01/08 08:39:47;;;;;;;;;;;23.60;93.30;;;;;;5067983;28;20044;-73
2023/01/08 08:42:14;;;;;;;;;;;23.50;93.30;;;;;;5067948;28;19923;-71
2023/01/08 08:44:40;;;;;;;;;;;23.40;93.50;;;;;;5071167;28;20062;-71
2023/01/08 08:47:10;;;;;;;;;;;23.40;93.60;;;;;;5073526;28;19915;-72
2023/01/08 08:49:36;;;;;;;;;;;23.40;93.50;;;;;;5077627;28;20006;-71
2023/01/08 08:52:03;;;;;;;;;;;23.30;93.60;;;;;;5071995;28;19970;-72
2023/01/08 08:54:30;;;;;;;;;;;23.30;93.80;;;;;;5085631;28;19916;-71
2023/01/08 08:56:57;;;;;;;;;;;23.20;93.80;;;;;;5069152;28;19912;-70
2023/01/08 08:59:23;;;;;;;;;;;23.20;94.00;;;;;;5070165;28;20285;-72
2023/01/08 09:01:50;;;;;;;;;;;23.10;94.10;;;;;;5072351;28;19967;-70
2023/01/08 09:04:17;;;;;;;;;;;23.00;94.40;;;;;;5072039;28;19920;-70
2023/01/08 09:06:43;;;;;;;;;;;22.90;94.20;;;;;;5079895;28;19920;-70
2023/01/08 09:09:10;;;;;;;;;;;22.90;94.40;;;;;;5065609;28;20290;-70
2023/01/08 09:11:37;;;;;;;;;;;22.80;94.50;;;;;;5063833;28;19989;-71
2023/01/08 09:14:03;;;;;;;;;;;22.70;94.60;;;;;;5071607;28;19931;-71
2023/01/08 09:16:31;;;;;;;;;;;22.60;94.80;;;;;;5063793;28;19909;-71
2023/01/08 09:18:58;;;;;;;;;;;22.60;95.00;;;;;;5067451;28;20019;-72
2023/01/08 09:21:25;;;;;;;;;;;22.60;95.00;;;;;;5072875;28;19909;-71
2023/01/08 09:23:51;;;;;;;;;;;22.50;95.10;;;;;;5072607;28;19920;-72
2023/01/08 09:26:18;;;;;;;;;;;22.50;95.20;;;;;;5074161;28;20278;-71
2023/01/08 09:28:45;;;;;;;;;;;22.40;95.30;;;;;;5065698;28;19912;-72
2023/01/08 09:31:11;;;;;;;;;;;22.50;95.40;;;;;;5058290;28;20347;-73
2023/01/08 09:33:38;;;;;;;;;;;22.30;95.60;;;;;;5067800;28;19931;-75
2023/01/08 09:36:08;;;;;;;;;;;22.20;96.00;;;;;;5068002;28;19912;-77
2023/01/08 09:38:34;;;;;;;;;;;22.00;96.40;;;;;;5063315;28;19913;-73
2023/01/08 09:41:03;;;;;;;;;;;21.80;96.70;;;;;;5070644;28;20427;-76
2023/01/08 09:43:31;;;;;;;;;;;21.70;97.00;;;;;;5069561;28;19913;-75
2023/01/08 09:46:00;;;;;;;;;;;21.60;97.20;;;;;;5072856;28;19939;-73
2023/01/08 09:48:32;;;;;;;;;;;21.50;97.20;;;;;;5063893;28;19913;-74
2023/01/08 09:50:59;;;;;;;;;;;21.40;97.50;;;;;;5051939;28;19912;-74
2023/01/08 09:53:26;;;;;;;;;;;21.40;97.70;;;;;;5070216;28;19956;-75
2023/01/08 09:55:58;;;;;;;;;;;21.30;98.00;;;;;;5080620;28;19919;-75
2023/01/08 09:58:34;;;;;;;;;;;21.30;98.10;;;;;;5061881;28;19916;-74
2023/01/08 10:01:02;;;;;;;;;;;21.20;98.30;;;;;;5072622;28;19950;-75
2023/01/08 10:03:31;;;;;;;;;;;21.20;98.30;;;;;;5069679;28;19913;-74
2023/01/08 10:05:57;;;;;;;;;;;21.10;98.40;;;;;;5071972;28;19920;-73
2023/01/08 10:08:24;;;;;;;;;;;21.10;98.60;;;;;;5066591;28;19920;-75
2023/01/08 10:10:51;;;;;;;;;;;21.00;98.80;;;;;;5070632;28;19916;-74
2023/01/08 10:13:18;;;;;;;;;;;20.90;98.90;;;;;;5066922;28;19916;-75
2023/01/08 10:15:44;;;;;;;;;;;20.90;98.80;;;;;;5059245;28;20431;-75
2023/01/08 10:18:12;;;;;;;;;;;20.80;98.90;;;;;;5066584;28;19917;-77
2023/01/08 10:20:39;;;;;;;;;;;20.80;99.30;;;;;;5062326;28;19919;-76
2023/01/08 10:23:13;;;;;;;;;;;20.70;99.30;;;;;;5064477;28;19916;-73
2023/01/08 10:25:47;;;;;;;;;;;20.60;99.40;;;;;;5058395;28;20278;-73
2023/01/08 10:28:24;;;;;;;;;;;20.60;99.60;;;;;;5065477;28;19917;-73
2023/01/08 10:30:52;;;;;;;;;;;20.50;99.60;;;;;;5067964;28;19920;-74
2023/01/08 10:33:26;;;;;;;;;;;20.50;99.70;;;;;;5064027;28;20346;-73
2023/01/08 10:35:55;;;;;;;;;;;20.40;99.90;;;;;;5061148;28;19920;-76
2023/01/08 10:38:41;;;;;;;;;;;20.40;99.90;;;;;;5065257;28;19939;-75
2023/01/08 10:41:13;;;;;;;;;;;20.40;99.90;;;;;;5062271;28;19936;-75
2023/01/08 10:43:53;;;;;;;;;;;20.30;99.90;;;;;;5066897;28;20344;-74
2023/01/08 10:46:24;;;;;;;;;;;20.30;99.90;;;;;;5068978;28;19924;-74
2023/01/08 10:48:52;;;;;;;;;;;20.30;99.90;;;;;;5063786;28;20255;-72
2023/01/08 10:51:22;;;;;;;;;;;20.20;99.90;;;;;;5070901;28;20413;-72
2023/01/08 10:53:49;;;;;;;;;;;20.20;99.90;;;;;;5064186;28;19913;-76
2023/01/08 10:56:26;;;;;;;;;;;20.10;99.90;;;;;;5065000;28;19942;-76
2023/01/08 10:58:53;;;;;;;;;;;20.00;99.90;;;;;;5062471;28;19916;-75
2023/01/08 11:01:29;;;;;;;;;;;20.00;99.90;;;;;;5067586;28;20248;-75
2023/01/08 11:04:03;;;;;;;;;;;19.90;99.90;;;;;;5061393;28;20027;-76
2023/01/08 11:06:32;;;;;;;;;;;19.90;99.90;;;;;;5062254;28;19964;-72
2023/01/08 11:09:03;;;;;;;;;;;19.90;99.90;;;;;;5065851;28;19917;-75
2023/01/08 11:11:33;;;;;;;;;;;19.80;99.90;;;;;;5070358;28;19943;-76
2023/01/08 11:14:02;;;;;;;;;;;19.80;99.90;;;;;;5065791;28;20325;-71
2023/01/08 11:16:33;;;;;;;;;;;19.70;99.90;;;;;;5068234;28;19916;-75
2023/01/08 11:19:00;;;;;;;;;;;19.70;99.90;;;;;;5066552;28;20012;-74
2023/01/08 11:21:31;;;;;;;;;;;19.60;99.90;;;;;;5064781;28;19920;-71
2023/01/08 11:24:04;;;;;;;;;;;19.60;99.90;;;;;;5065539;28;20287;-76
2023/01/08 11:26:31;;;;;;;;;;;19.50;99.90;;;;;;5064456;28;19923;-76
2023/01/08 11:29:01;;;;;;;;;;;19.50;99.90;;;;;;5065958;28;19919;-75
2023/01/08 11:31:34;;;;;;;;;;;19.50;99.90;;;;;;5064181;28;19913;-76
2023/01/08 11:34:07;;;;;;;;;;;19.40;99.90;;;;;;5061184;28;19916;-76
2023/01/08 11:36:35;;;;;;;;;;;19.40;99.90;;;;;;5067010;28;19912;-73
2023/01/08 11:39:02;;;;;;;;;;;19.40;99.90;;;;;;5055937;28;19924;-75
2023/01/08 11:41:31;;;;;;;;;;;19.40;99.90;;;;;;5055267;28;19921;-75
2023/01/08 11:44:18;;;;;;;;;;;19.30;99.90;;;;;;5060332;28;19916;-73
2023/01/08 11:47:07;;;;;;;;;;;19.30;99.90;;;;;;5066391;28;20354;-73
2023/01/08 11:49:34;;;;;;;;;;;19.20;99.90;;;;;;5059957;28;19944;-72
2023/01/08 11:52:10;;;;;;;;;;;19.20;99.90;;;;;;5071236;28;19963;-73
2023/01/08 11:54:51;;;;;;;;;;;19.20;99.90;;;;;;5067374;28;20016;-73
2023/01/08 11:57:28;;;;;;;;;;;19.20;99.90;;;;;;5074333;28;20054;-75
2023/01/08 12:00:12;;;;;;;;;;;19.10;99.90;;;;;;5067385;28;20367;-74
2023/01/08 12:02:48;;;;;;;;;;;19.10;99.90;;;;;;5059989;28;19957;-72
2023/01/08 12:05:33;;;;;;;;;;;19.10;99.90;;;;;;5070434;28;19927;-74
2023/01/08 12:08:18;;;;;;;;;;;19.00;99.90;;;;;;5056068;28;19973;-73
2023/01/08 12:10:56;;;;;;;;;;;19.00;99.90;;;;;;5069243;28;19958;-72
2023/01/08 12:13:27;;;;;;;;;;;19.00;99.90;;;;;;5065765;28;19921;-72
2023/01/08 12:16:29;;;;;;;;;;;19.00;99.90;;;;;;5069586;28;19922;-73
2023/01/08 12:18:58;;;;;;;;;;;18.90;99.90;;;;;;5038902;28;19920;-73
2023/01/08 12:21:32;;;;;;;;;;;18.80;99.90;;;;;;5064471;28;19955;-73
2023/01/08 12:24:05;;;;;;;;;;;18.80;99.90;;;;;;5061427;28;20017;-72
2023/01/08 12:26:52;;;;;;;;;;;18.80;99.90;;;;;;5065279;28;19920;-72
2023/01/08 12:29:18;;;;;;;;;;;18.70;99.90;;;;;;5059401;28;19932;-73
2023/01/08 12:31:45;;;;;;;;;;;18.70;99.90;;;;;;5062639;28;19920;-75
2023/01/08 12:34:14;;;;;;;;;;;18.70;99.90;;;;;;5060169;28;19919;-73
2023/01/08 12:36:44;;;;;;;;;;;18.60;99.90;;;;;;5061658;28;20001;-73
2023/01/08 12:39:18;;;;;;;;;;;18.60;99.90;;;;;;5057262;28;19999;-72
2023/01/08 12:41:46;;;;;;;;;;;18.50;99.90;;;;;;5066995;28;19912;-75
2023/01/08 12:44:17;;;;;;;;;;;18.50;99.90;;;;;;5060653;28;20378;-73
2023/01/08 12:46:47;;;;;;;;;;;18.40;99.90;;;;;;5065516;28;19962;-75
2023/01/08 12:49:17;;;;;;;;;;;18.40;99.90;;;;;;5061179;28;20385;-73
2023/01/08 12:51:55;;;;;;;;;;;18.40;99.90;;;;;;5065689;28;19928;-74
2023/01/08 12:54:30;;;;;;;;;;;18.30;99.90;;;;;;5069533;28;19912;-75
2023/01/08 12:57:03;;;;;;;;;;;18.30;99.90;;;;;;5062572;28;19917;-73
2023/01/08 12:59:48;;;;;;;;;;;18.30;99.90;;;;;;5060510;28;19917;-75
2023/01/08 13:02:23;;;;;;;;;;;18.20;99.90;;;;;;5061145;28;20355;-75
2023/01/08 13:04:50;;;;;;;;;;;18.20;99.90;;;;;;5065377;28;19920;-74
2023/01/08 13:07:22;;;;;;;;;;;18.20;99.90;;;;;;5062011;28;20290;-75
2023/01/08 13:10:07;;;;;;;;;;;18.10;99.90;;;;;;5064094;28;19947;-72
2023/01/08 13:12:38;;;;;;;;;;;18.10;99.90;;;;;;5058898;28;19928;-72
2023/01/08 13:15:06;;;;;;;;;;;18.10;99.90;;;;;;5061677;28;19995;-74
2023/01/08 13:17:33;;;;;;;;;;;18.10;99.90;;;;;;5064119;28;20015;-73
2023/01/08 13:20:05;;;;;;;;;;;18.10;99.90;;;;;;5061036;28;19962;-71
2023/01/08 13:22:33;;;;;;;;;;;18.00;99.90;;;;;;5072494;28;19912;-73
2023/01/08 13:25:15;;;;;;;;;;;17.90;99.90;;;;;;5062995;28;20611;-75
2023/01/08 13:27:43;;;;;;;;;;;17.90;99.90;;;;;;5064330;28;20342;-75
2023/01/08 13:30:28;;;;;;;;;;;17.80;99.90;;;;;;5054073;28;19909;-73
2023/01/08 13:32:54;;;;;;;;;;;17.80;99.90;;;;;;5062937;28;19924;-72
2023/01/08 13:35:25;;;;;;;;;;;17.80;99.90;;;;;;5065488;28;19982;-72
2023/01/08 13:38:05;;;;;;;;;;;17.80;99.90;;;;;;5056045;28;19921;-71
2023/01/08 13:40:44;;;;;;;;;;;17.70;99.90;;;;;;5061666;28;19943;-72
2023/01/08 13:43:15;;;;;;;;;;;17.70;99.90;;;;;;5055961;28;19913;-73
2023/01/08 13:45:42;;;;;;;;;;;17.70;99.90;;;;;;5059229;28;19921;-72
2023/01/08 13:48:25;;;;;;;;;;;17.70;99.90;;;;;;5063764;28;19940;-73
2023/01/08 13:50:52;;;;;;;;;;;17.70;99.90;;;;;;5070005;28;19991;-73
2023/01/08 13:53:20;;;;;;;;;;;17.70;99.90;;;;;;5074548;28;19912;-75
2023/01/08 13:55:52;;;;;;;;;;;17.60;99.90;;;;;;5066048;28;19920;-71
2023/01/08 13:58:23;;;;;;;;;;;17.60;99.90;;;;;;5066005;28;19917;-71
2023/01/08 14:00:52;;;;;;;;;;;17.60;99.90;;;;;;5064791;28;19912;-74
2023/01/08 14:03:25;;;;;;;;;;;17.60;99.90;;;;;;5071469;28;19916;-73
2023/01/08 14:05:52;;;;;;;;;;;17.60;99.90;;;;;;5069343;28;20354;-73
2023/01/08 14:08:26;;;;;;;;;;;17.50;99.90;;;;;;5055558;28;20344;-71
2023/01/08 14:10:52;;;;;;;;;;;17.40;99.90;;;;;;5063992;28;19913;-72
2023/01/08 14:13:22;;;;;;;;;;;17.40;99.90;;;;;;5079079;28;20314;-70
2023/01/08 14:15:48;;;;;;;;;;;17.40;99.90;;;;;;5063806;28;20244;-73
2023/01/08 14:18:15;;;;;;;;;;;17.30;99.90;;;;;;5061154;28;19923;-72
2023/01/08 14:20:44;;;;;;;;;;;17.40;99.90;;;;;;5068401;28;19923;-74
2023/01/08 14:23:19;;;;;;;;;;;17.40;99.90;;;;;;5070409;28;19913;-73
2023/01/08 14:25:49;;;;;;;;;;;17.40;99.90;;;;;;5056432;28;19928;-72
2023/01/08 14:28:17;;;;;;;;;;;17.40;99.90;;;;;;5070793;28;19920;-70
2023/01/08 14:30:50;;;;;;;;;;;17.40;99.90;;;;;;5074035;28;20424;-70